createdAt,value
2018-09-20T00:00:52.822Z,11.47
2018-09-20T00:03:21.117Z,10.80
2018-09-20T00:05:49.391Z,10.63
2018-09-20T00:08:17.640Z,10.07
2018-09-20T00:10:46.014Z,10.70
2018-09-20T00:13:14.294Z,10.70
2018-09-20T00:15:42.557Z,10.37
2018-09-20T00:18:10.820Z,10.03
2018-09-20T00:20:39.083Z,10.80
2018-09-20T00:23:07.430Z,10.15
2018-09-20T00:25:35.714Z,11.20
2018-09-20T00:28:03.998Z,10.90
2018-09-20T00:30:32.270Z,11.10
2018-09-20T00:33:00.513Z,11.30
2018-09-20T00:35:28.799Z,10.78
2018-09-20T00:37:57.078Z,10.75
2018-09-20T00:40:25.369Z,11.70
2018-09-20T00:42:53.683Z,10.08
2018-09-20T00:45:21.958Z,10.60
2018-09-20T00:47:50.348Z,10.38
2018-09-20T00:50:18.626Z,11.70
2018-09-20T00:52:46.902Z,11.48
2018-09-20T00:55:15.168Z,10.80
2018-09-20T00:57:43.451Z,10.45
2018-09-20T01:00:11.722Z,11.48
2018-09-20T01:02:40.026Z,11.60
2018-09-20T01:05:08.318Z,11.65
2018-09-20T01:07:36.584Z,11.22
2018-09-20T01:10:04.879Z,11.53
2018-09-20T01:12:33.155Z,11.22
2018-09-20T01:15:01.425Z,12.40
2018-09-20T01:17:30.020Z,11.85
2018-09-20T01:19:58.277Z,10.67
2018-09-20T01:22:26.616Z,10.55
2018-09-20T01:24:54.896Z,11.15
2018-09-20T01:27:23.165Z,11.97
2018-09-20T01:29:51.573Z,12.23
2018-09-20T01:32:19.845Z,11.48
2018-09-20T01:34:48.174Z,10.90
2018-09-20T01:37:16.744Z,11.15
2018-09-20T01:39:45.006Z,11.75
2018-09-20T01:42:13.353Z,11.55
2018-09-20T01:44:41.643Z,12.28
2018-09-20T01:47:09.896Z,11.15
2018-09-20T01:49:38.164Z,11.50
2018-09-20T01:52:06.431Z,13.62
2018-09-20T01:54:34.707Z,13.08
2018-09-20T01:57:02.973Z,10.48
2018-09-20T01:59:31.246Z,12.90
2018-09-20T02:01:59.523Z,12.63
2018-09-20T02:04:27.844Z,11.20
2018-09-20T02:06:56.228Z,12.85
2018-09-20T02:09:24.476Z,11.33
2018-09-20T02:11:53.149Z,11.80
2018-09-20T02:14:21.408Z,11.63
2018-09-20T02:16:49.687Z,11.78
2018-09-20T02:19:17.958Z,10.63
2018-09-20T02:21:46.224Z,12.05
2018-09-20T02:24:14.500Z,11.35
2018-09-20T02:26:42.804Z,12.65
2018-09-20T02:29:11.064Z,11.75
2018-09-20T02:31:39.309Z,10.53
2018-09-20T02:34:07.574Z,11.75
2018-09-20T02:36:37.780Z,11.15
2018-09-20T02:39:07.311Z,11.28
2018-09-20T02:41:35.590Z,11.20
2018-09-20T02:44:04.225Z,11.40
2018-09-20T02:46:32.484Z,11.78
2018-09-20T02:49:00.863Z,11.10
2018-09-20T02:51:29.146Z,10.98
2018-09-20T02:53:57.415Z,11.30
2018-09-20T02:56:25.683Z,11.63
2018-09-20T02:58:54.072Z,11.65
2018-09-20T03:01:22.339Z,12.98
2018-09-20T03:03:50.648Z,11.93
2018-09-20T03:06:19.047Z,10.75
2018-09-20T03:08:47.308Z,11.50
2018-09-20T03:11:15.595Z,11.18
2018-09-20T03:13:43.868Z,12.15
2018-09-20T03:16:12.124Z,10.85
2018-09-20T03:18:40.394Z,11.65
2018-09-20T03:21:08.660Z,11.60
2018-09-20T03:23:36.910Z,10.58
2018-09-20T03:26:05.175Z,10.55
2018-09-20T03:28:33.900Z,12.65
2018-09-20T03:31:02.227Z,10.55
2018-09-20T03:33:30.607Z,11.35
2018-09-20T03:35:58.891Z,11.12
2018-09-20T03:38:27.160Z,11.28
2018-09-20T03:40:55.425Z,11.12
2018-09-20T03:43:23.678Z,10.95
2018-09-20T03:45:51.939Z,12.20
2018-09-20T03:48:20.219Z,11.68
2018-09-20T03:50:48.514Z,11.70
2018-09-20T03:53:16.781Z,10.55
2018-09-20T03:55:45.044Z,12.00
2018-09-20T03:58:13.840Z,12.10
2018-09-20T04:00:42.118Z,12.88
2018-09-20T04:03:10.524Z,16.77
2018-09-20T04:05:38.790Z,19.98
2018-09-20T04:08:08.026Z,23.05
2018-09-20T04:10:36.280Z,22.75
2018-09-20T04:13:04.560Z,20.25
2018-09-20T04:15:32.817Z,16.07
2018-09-20T04:18:02.115Z,13.22
2018-09-20T04:20:30.407Z,11.45
2018-09-20T04:22:58.672Z,11.55
2018-09-20T04:25:26.939Z,13.38
2018-09-20T04:27:55.192Z,12.03
2018-09-20T04:30:23.472Z,12.00
2018-09-20T04:32:52.663Z,12.65
2018-09-20T04:35:20.952Z,12.25
2018-09-20T04:37:49.226Z,11.85
2018-09-20T04:40:17.503Z,10.45
2018-09-20T04:42:45.761Z,12.58
2018-09-20T04:45:14.391Z,11.65
2018-09-20T04:47:42.684Z,12.33
2018-09-20T04:50:10.962Z,12.68
2018-09-20T04:52:39.297Z,11.28
2018-09-20T04:55:09.721Z,13.25
2018-09-20T04:57:38.031Z,12.65
2018-09-20T05:00:06.367Z,11.68
2018-09-20T05:02:34.763Z,12.47
2018-09-20T05:05:03.057Z,12.00
2018-09-20T05:07:31.316Z,12.13
2018-09-20T05:09:59.583Z,12.15
2018-09-20T05:12:27.858Z,13.83
2018-09-20T05:14:57.550Z,11.65
2018-09-20T05:17:25.887Z,12.45
2018-09-20T05:19:54.157Z,12.60
2018-09-20T05:22:22.418Z,12.55
2018-09-20T05:24:52.841Z,12.30
2018-09-20T05:27:21.100Z,12.53
2018-09-20T05:29:49.485Z,12.47
2018-09-20T05:32:17.755Z,11.60
2018-09-20T05:34:46.040Z,12.07
2018-09-20T05:37:15.420Z,12.20
2018-09-20T05:39:43.682Z,11.85
2018-09-20T05:42:11.992Z,12.18
2018-09-20T05:44:40.328Z,12.90
2018-09-20T05:47:08.592Z,12.00
2018-09-20T05:49:36.862Z,12.28
2018-09-20T05:52:05.277Z,12.37
2018-09-20T05:54:33.555Z,13.00
2018-09-20T05:57:01.880Z,12.15
2018-09-20T05:59:30.224Z,13.20
2018-09-20T06:01:58.559Z,12.15
2018-09-20T06:04:26.906Z,11.70
2018-09-20T06:06:55.186Z,12.60
2018-09-20T06:09:23.459Z,13.03
2018-09-20T06:11:51.745Z,12.25
2018-09-20T06:14:20.056Z,13.22
2018-09-20T06:16:48.574Z,13.13
2018-09-20T06:19:16.861Z,11.40
2018-09-20T06:21:45.165Z,12.07
2018-09-20T06:24:13.840Z,11.28
2018-09-20T06:26:42.394Z,11.85
2018-09-20T06:29:10.843Z,12.95
2018-09-20T06:31:39.433Z,11.75
2018-09-20T06:34:07.768Z,11.65
2018-09-20T06:36:36.081Z,11.25
2018-09-20T06:39:06.475Z,10.93
2018-09-20T06:41:34.718Z,11.35
2018-09-20T06:44:03.023Z,11.03
2018-09-20T06:46:31.285Z,10.77
2018-09-20T06:48:59.527Z,11.03
2018-09-20T06:51:27.800Z,9.87
2018-09-20T06:53:56.132Z,9.50
2018-09-20T06:56:24.450Z,10.77
2018-09-20T06:58:52.836Z,10.10
2018-09-20T07:01:21.144Z,10.00
2018-09-20T07:03:49.534Z,10.43
2018-09-20T07:06:17.847Z,9.87
2018-09-20T07:08:46.162Z,10.20
2018-09-20T07:11:14.438Z,9.73
2018-09-20T07:13:42.944Z,9.20
2018-09-20T07:16:11.182Z,10.00
2018-09-20T07:18:39.511Z,9.90
2018-09-20T07:21:07.828Z,8.83
2018-09-20T07:23:36.116Z,9.10
2018-09-20T07:26:04.391Z,9.30
2018-09-20T07:28:32.632Z,7.90
2018-09-20T07:31:01.795Z,8.77
2018-09-20T07:33:30.174Z,9.13
2018-09-20T07:35:58.421Z,8.60
2018-09-20T07:38:26.656Z,8.70
2018-09-20T07:40:55.089Z,8.70
2018-09-20T07:43:23.400Z,8.17
2018-09-20T07:45:52.019Z,8.37
2018-09-20T07:48:21.192Z,9.10
2018-09-20T07:50:49.435Z,8.50
2018-09-20T07:53:17.673Z,7.83
2018-09-20T07:55:45.933Z,7.73
2018-09-20T07:58:14.207Z,8.13
2018-09-20T08:00:42.456Z,7.73
2018-09-20T08:03:10.708Z,7.77
2018-09-20T08:05:38.993Z,8.13
2018-09-20T08:08:07.259Z,7.77
2018-09-20T08:10:35.521Z,7.47
2018-09-20T08:13:03.833Z,8.20
2018-09-20T08:15:32.079Z,7.50
2018-09-20T08:18:00.486Z,6.90
2018-09-20T08:20:28.776Z,6.30
2018-09-20T08:22:57.046Z,6.80
2018-09-20T08:25:25.655Z,6.90
2018-09-20T08:27:54.260Z,6.47
2018-09-20T08:30:22.878Z,7.13
2018-09-20T08:32:51.508Z,6.57
2018-09-20T08:35:20.135Z,6.57
2018-09-20T08:37:48.804Z,6.33
2018-09-20T08:40:17.743Z,6.07
2018-09-20T08:42:47.294Z,6.37
2018-09-20T08:45:19.656Z,7.57
2018-09-20T08:47:49.193Z,6.27
2018-09-20T08:50:17.921Z,6.27
2018-09-20T08:52:46.672Z,6.23
2018-09-20T08:55:15.246Z,5.70
2018-09-20T08:57:50.442Z,5.57
2018-09-20T09:00:19.202Z,6.10
2018-09-20T09:02:50.188Z,6.73
2018-09-20T09:05:18.910Z,5.60
2018-09-20T09:07:48.376Z,6.30
2018-09-20T09:10:16.969Z,5.40
2018-09-20T09:12:45.565Z,5.87
2018-09-20T09:15:14.892Z,5.30
2018-09-20T09:17:44.049Z,5.87
2018-09-20T09:20:15.295Z,5.90
2018-09-20T09:22:43.902Z,6.37
2018-09-20T09:25:13.026Z,5.20
2018-09-20T09:27:41.633Z,5.50
2018-09-20T09:30:10.236Z,5.40
2018-09-20T09:32:38.797Z,4.80
2018-09-20T09:35:07.386Z,4.77
2018-09-20T09:37:36.748Z,5.30
2018-09-20T09:40:05.408Z,5.50
2018-09-20T09:42:35.057Z,4.50
2018-09-20T09:45:03.658Z,4.50
2018-09-20T09:47:32.268Z,4.70
2018-09-20T09:50:00.862Z,3.70
2018-09-20T09:52:29.507Z,4.23
2018-09-20T09:54:58.108Z,4.43
2018-09-20T09:57:26.700Z,4.77
2018-09-20T09:59:55.314Z,3.97
2018-09-20T10:02:23.928Z,4.10
2018-09-20T10:04:52.575Z,4.90
2018-09-20T10:07:21.547Z,4.37
2018-09-20T10:09:50.881Z,4.63
2018-09-20T10:12:20.224Z,4.77
2018-09-20T10:14:48.803Z,4.53
2018-09-20T10:17:17.458Z,4.47
2018-09-20T10:19:46.183Z,4.47
2018-09-20T10:22:14.785Z,4.50
2018-09-20T10:24:43.519Z,4.57
2018-09-20T10:27:14.147Z,3.87
2018-09-20T10:29:50.424Z,4.20
2018-09-20T10:32:19.801Z,4.50
2018-09-20T10:34:51.352Z,4.90
2018-09-20T10:37:22.753Z,4.20
2018-09-20T10:39:51.862Z,5.03
2018-09-20T10:42:21.453Z,4.43
2018-09-20T10:44:50.715Z,4.40
2018-09-20T10:47:22.361Z,4.43
2018-09-20T10:49:52.827Z,4.03
2018-09-20T10:52:22.338Z,4.70
2018-09-20T10:54:52.655Z,4.43
2018-09-20T10:57:21.301Z,4.20
2018-09-20T10:59:56.023Z,4.00
2018-09-20T11:02:25.416Z,3.40
2018-09-20T11:04:59.054Z,4.00
2018-09-20T11:07:29.393Z,4.70
2018-09-20T11:10:02.757Z,3.87
2018-09-20T11:12:32.398Z,3.90
2018-09-20T11:15:04.210Z,3.40
2018-09-20T11:17:34.828Z,3.53
2018-09-20T11:20:05.090Z,3.60
2018-09-20T11:22:35.762Z,4.10
2018-09-20T11:25:09.550Z,3.93
2018-09-20T11:27:39.423Z,4.10
2018-09-20T11:30:12.300Z,3.73
2018-09-20T11:32:42.426Z,4.00
2018-09-20T11:35:15.315Z,3.87
2018-09-20T11:37:46.204Z,3.20
2018-09-20T11:40:17.107Z,3.80
2018-09-20T11:42:48.077Z,3.90
2018-09-20T11:45:18.890Z,4.67
2018-09-20T11:47:49.176Z,4.07
2018-09-20T11:50:22.954Z,3.77
2018-09-20T11:52:53.996Z,3.50
2018-09-20T11:55:27.708Z,4.10
2018-09-20T11:57:56.412Z,4.20
2018-09-20T12:00:29.829Z,4.20
2018-09-20T12:02:59.189Z,3.90
2018-09-20T12:05:28.672Z,4.20
2018-09-20T12:08:04.817Z,3.93
2018-09-20T12:10:34.324Z,4.00
2018-09-20T12:13:03.914Z,3.77
2018-09-20T12:15:35.812Z,4.43
2018-09-20T12:18:10.266Z,4.20
2018-09-20T12:20:38.858Z,4.20
2018-09-20T12:23:10.755Z,4.10
2018-09-20T12:25:43.143Z,3.93
2018-09-20T12:28:13.580Z,4.10
2018-09-20T12:30:47.314Z,4.70
2018-09-20T12:33:16.867Z,4.40
2018-09-20T12:35:49.833Z,4.20
2018-09-20T12:38:19.566Z,4.33
2018-09-20T12:40:49.418Z,4.53
2018-09-20T12:43:18.745Z,4.67
2018-09-20T12:45:47.321Z,4.40
2018-09-20T12:48:18.141Z,4.83
2018-09-20T12:50:48.637Z,4.40
2018-09-20T12:53:17.282Z,4.33
2018-09-20T12:55:47.207Z,4.80
2018-09-20T12:58:15.825Z,4.93
2018-09-20T13:00:49.051Z,4.70
2018-09-20T13:03:17.701Z,4.40
2018-09-20T13:05:48.785Z,3.73
2018-09-20T13:08:21.377Z,5.63
2018-09-20T13:10:50.828Z,4.50
2018-09-20T13:13:23.734Z,4.93
2018-09-20T13:15:52.589Z,4.80
2018-09-20T13:18:22.852Z,4.60
2018-09-20T13:20:53.008Z,4.10
2018-09-20T13:23:25.845Z,5.20
2018-09-20T13:25:57.262Z,4.43
2018-09-20T13:28:27.751Z,4.90
2018-09-20T13:30:58.602Z,4.63
2018-09-20T13:33:31.088Z,4.10
2018-09-20T13:36:01.877Z,4.37
2018-09-20T13:38:32.634Z,4.43
2018-09-20T13:41:03.949Z,4.40
2018-09-20T13:43:33.151Z,4.37
2018-09-20T13:46:01.765Z,4.40
2018-09-20T13:48:31.403Z,4.30
2018-09-20T13:51:00.877Z,4.00
2018-09-20T13:53:30.791Z,4.70
2018-09-20T13:56:05.524Z,4.30
2018-09-20T13:58:35.570Z,4.20
2018-09-20T14:01:05.973Z,4.30
2018-09-20T14:03:36.296Z,4.63
2018-09-20T14:06:05.851Z,4.60
2018-09-20T14:08:38.617Z,4.70
2018-09-20T14:11:08.003Z,4.77
2018-09-20T14:13:36.608Z,4.27
2018-09-20T14:16:05.188Z,5.40
2018-09-20T14:18:34.381Z,4.43
2018-09-20T14:21:04.850Z,4.97
2018-09-20T14:23:33.522Z,5.00
2018-09-20T14:26:03.026Z,4.80
2018-09-20T14:28:35.214Z,5.87
2018-09-20T14:31:03.811Z,4.77
2018-09-20T14:33:32.401Z,5.00
2018-09-20T14:36:01.974Z,5.00
2018-09-20T14:38:33.442Z,4.60
2018-09-20T14:41:02.182Z,4.50
2018-09-20T14:43:31.564Z,4.30
2018-09-20T14:46:02.361Z,4.20
2018-09-20T14:48:31.706Z,4.10
2018-09-20T14:51:01.161Z,4.70
2018-09-20T14:53:29.796Z,4.37
2018-09-20T14:55:59.037Z,4.50
2018-09-20T14:58:27.731Z,4.70
2018-09-20T15:00:58.228Z,4.60
2018-09-20T15:03:28.835Z,4.70
2018-09-20T15:05:58.124Z,4.67
2018-09-20T15:08:26.859Z,4.80
2018-09-20T15:10:57.544Z,3.70
2018-09-20T15:13:26.136Z,4.57
2018-09-20T15:15:55.698Z,4.93
2018-09-20T15:18:24.340Z,4.63
2018-09-20T15:20:58.736Z,5.50
2018-09-20T15:23:28.004Z,4.90
2018-09-20T15:25:57.848Z,4.97
2018-09-20T15:28:27.494Z,4.80
2018-09-20T15:30:58.879Z,5.00
2018-09-20T15:33:33.737Z,4.30
2018-09-20T15:36:06.201Z,4.47
2018-09-20T15:38:42.311Z,4.33
2018-09-20T15:41:12.848Z,4.20
2018-09-20T15:43:43.033Z,4.80
2018-09-20T15:46:12.974Z,4.77
2018-09-20T15:48:53.928Z,4.30
2018-09-20T15:51:30.756Z,4.50
2018-09-20T15:54:02.025Z,4.10
2018-09-20T15:56:34.304Z,7.73
2018-09-20T15:59:06.010Z,4.10
2018-09-20T16:01:35.551Z,4.90
2018-09-20T16:04:06.143Z,4.27
2018-09-20T16:06:34.907Z,4.63
2018-09-20T16:09:09.859Z,5.03
2018-09-20T16:11:40.975Z,4.63
2018-09-20T16:14:09.765Z,4.80
2018-09-20T16:16:41.106Z,4.60
2018-09-20T16:19:12.795Z,3.73
2018-09-20T16:21:45.401Z,4.53
2018-09-20T16:24:19.032Z,4.73
2018-09-20T16:26:49.479Z,5.20
2018-09-20T16:29:44.553Z,4.80
2018-09-20T16:32:36.408Z,4.30
2018-09-20T16:35:21.243Z,4.40
2018-09-20T16:38:08.531Z,4.33
2018-09-20T16:40:42.127Z,4.20
2018-09-20T16:43:10.949Z,3.90
2018-09-20T16:45:39.517Z,4.00
2018-09-20T16:48:08.174Z,4.33
2018-09-20T16:50:36.777Z,3.80
2018-09-20T16:53:05.512Z,3.80
2018-09-20T16:55:36.795Z,3.93
2018-09-20T16:58:05.544Z,4.10
2018-09-20T17:00:34.546Z,4.13
2018-09-20T17:03:08.751Z,4.50
2018-09-20T17:05:38.425Z,3.50
2018-09-20T17:08:10.137Z,4.23
2018-09-20T17:10:41.612Z,3.87
2018-09-20T17:13:12.297Z,3.47
2018-09-20T17:15:46.424Z,3.97
2018-09-20T17:18:15.359Z,4.10
2018-09-20T17:20:47.507Z,3.80
2018-09-20T17:23:16.791Z,4.00
2018-09-20T17:25:47.433Z,4.13
2018-09-20T17:28:18.162Z,4.30
2018-09-20T17:31:09.127Z,4.10
2018-09-20T17:33:42.621Z,4.50
2018-09-20T17:36:14.521Z,3.93
2018-09-20T17:38:44.110Z,4.80
2018-09-20T17:41:16.314Z,4.60
2018-09-20T17:43:54.479Z,4.70
2018-09-20T17:46:26.608Z,4.80
2018-09-20T17:48:55.154Z,4.70
2018-09-20T17:51:27.216Z,5.50
2018-09-20T17:53:57.595Z,22.17
2018-09-20T17:56:27.385Z,16.77
2018-09-20T17:59:03.952Z,13.67
2018-09-20T18:01:40.562Z,7.80
2018-09-20T18:04:12.171Z,5.50
2018-09-20T18:06:40.723Z,5.00
2018-09-20T18:09:22.209Z,5.27
2018-09-20T18:11:50.762Z,5.50
2018-09-20T18:14:21.236Z,5.00
2018-09-20T18:16:53.807Z,5.50
2018-09-20T18:19:25.053Z,4.90
2018-09-20T18:21:57.305Z,4.97
2018-09-20T18:24:26.546Z,4.57
2018-09-20T18:26:56.969Z,4.90
2018-09-20T18:29:25.878Z,5.00
2018-09-20T18:31:54.437Z,5.03
2018-09-20T18:34:23.907Z,4.97
2018-09-20T18:36:53.229Z,6.07
2018-09-20T18:39:25.331Z,5.83
2018-09-20T18:41:54.052Z,5.10
2018-09-20T18:44:22.589Z,4.90
2018-09-20T18:46:52.635Z,5.17
2018-09-20T18:49:21.216Z,5.63
2018-09-20T18:51:50.848Z,5.70
2018-09-20T18:54:21.553Z,5.70
2018-09-20T18:56:50.546Z,5.47
2018-09-20T18:59:19.157Z,5.30
2018-09-20T19:01:47.907Z,5.80
2018-09-20T19:04:19.455Z,5.47
2018-09-20T19:06:48.024Z,5.30
2018-09-20T19:09:16.591Z,5.40
2018-09-20T19:11:46.926Z,5.47
2018-09-20T19:14:16.575Z,5.30
2018-09-20T19:16:45.242Z,5.00
2018-09-20T19:19:13.886Z,5.10
2018-09-20T19:21:43.665Z,5.50
2018-09-20T19:24:12.235Z,5.20
2018-09-20T19:26:47.559Z,5.30
2018-09-20T19:29:22.918Z,5.47
2018-09-20T19:31:51.507Z,5.50
2018-09-20T19:34:21.749Z,4.90
2018-09-20T19:36:50.286Z,5.13
2018-09-20T19:39:18.945Z,4.93
2018-09-20T19:41:48.427Z,5.23
2018-09-20T19:44:18.403Z,5.23
2018-09-20T19:46:48.247Z,5.20
2018-09-20T19:49:17.450Z,5.03
2018-09-20T19:51:47.701Z,5.03
2018-09-20T19:54:19.572Z,4.90
2018-09-20T19:56:49.079Z,5.10
2018-09-20T19:59:18.607Z,4.83
2018-09-20T20:01:47.880Z,5.90
2018-09-20T20:04:17.224Z,4.67
2018-09-20T20:09:36.211Z,5.57
2018-09-20T20:12:04.857Z,5.40
2018-09-20T20:14:33.463Z,5.03
2018-09-20T20:17:02.269Z,5.30
2018-09-20T20:19:30.992Z,4.93
2018-09-20T20:22:00.994Z,5.17
2018-09-20T20:24:29.608Z,4.70
2018-09-20T20:26:58.993Z,4.93
2018-09-20T20:29:27.541Z,5.53
2018-09-20T20:31:56.099Z,5.00
2018-09-20T20:34:24.674Z,6.00
2018-09-20T20:36:54.979Z,5.37
2018-09-20T20:39:23.583Z,5.80
2018-09-20T20:41:52.135Z,5.80
2018-09-20T20:44:20.688Z,5.57
2018-09-20T20:46:49.362Z,5.17
2018-09-20T20:49:18.120Z,5.03
2018-09-20T20:51:48.748Z,4.67
2018-09-20T20:54:17.345Z,4.67
2018-09-20T20:56:46.051Z,5.67
2018-09-20T20:59:14.630Z,5.17
2018-09-20T21:01:43.219Z,5.27
2018-09-20T21:04:12.733Z,4.80
2018-09-20T21:06:41.434Z,5.23
2018-09-20T21:09:11.055Z,5.00
2018-09-20T21:11:39.613Z,4.97
2018-09-20T21:14:08.187Z,5.33
2018-09-20T21:16:36.737Z,5.23
2018-09-20T21:19:05.358Z,5.90
2018-09-20T21:21:34.065Z,5.80
2018-09-20T21:24:02.786Z,5.00
2018-09-20T21:26:31.445Z,5.80
2018-09-20T21:29:00.709Z,5.53
2018-09-20T21:31:30.193Z,5.80
2018-09-20T21:33:58.815Z,5.20
2018-09-20T21:36:27.516Z,5.57
2018-09-20T21:38:56.432Z,5.10
2018-09-20T21:41:24.998Z,5.23
2018-09-20T21:43:55.615Z,5.07
2018-09-20T21:46:24.200Z,4.60
2018-09-20T21:48:53.706Z,5.23
2018-09-20T21:51:24.336Z,5.77
2018-09-20T21:53:52.896Z,5.13
2018-09-20T21:57:00.085Z,5.57
2018-09-20T21:59:28.750Z,5.60
2018-09-20T22:02:02.207Z,6.00
2018-09-20T22:04:35.030Z,4.77
2018-09-20T22:07:03.268Z,5.40
2018-09-20T22:09:31.790Z,5.40
2018-09-20T22:12:00.142Z,5.80
2018-09-20T22:14:28.376Z,5.00
2018-09-20T22:16:56.795Z,5.50
2018-09-20T22:19:26.063Z,4.70
2018-09-20T22:21:54.315Z,4.80
2018-09-20T22:24:22.532Z,5.43
2018-09-20T22:26:51.833Z,5.00
2018-09-20T22:29:20.084Z,5.40
2018-09-20T22:31:48.316Z,5.30
2018-09-20T22:34:16.589Z,5.17
2018-09-20T22:36:46.025Z,5.33
2018-09-20T22:39:15.117Z,5.63
2018-09-20T22:41:43.707Z,5.03
2018-09-20T22:44:11.925Z,5.33
2018-09-20T22:46:40.149Z,5.53
2018-09-20T22:49:08.394Z,4.90
2018-09-20T22:51:36.653Z,5.53
2018-09-20T22:54:04.924Z,5.50
2018-09-20T22:56:34.234Z,5.00
2018-09-20T22:59:02.470Z,5.87
2018-09-20T23:01:30.799Z,4.90
2018-09-20T23:03:59.047Z,6.27
2018-09-20T23:06:28.005Z,5.20
2018-09-20T23:08:56.232Z,6.03
2018-09-20T23:11:24.484Z,5.70
2018-09-20T23:13:52.717Z,5.07
2018-09-20T23:16:20.934Z,5.00
2018-09-20T23:18:50.210Z,5.47
2018-09-20T23:21:18.433Z,5.53
2018-09-20T23:23:46.788Z,6.53
2018-09-20T23:26:15.259Z,5.77
2018-09-20T23:28:43.498Z,5.30
2018-09-20T23:31:11.995Z,5.93
2018-09-20T23:33:40.199Z,6.00
2018-09-20T23:36:08.447Z,5.60
2018-09-20T23:38:36.691Z,6.20
2018-09-20T23:41:04.939Z,5.80
2018-09-20T23:43:33.180Z,6.17
2018-09-20T23:49:18.970Z,5.40
